Time;durP1;ratioP1;P1;durP2;ratioP2;P2;SDS_P1;SDS_P2;PMS_P1;PMS_P2;Temp;Humidity;BMP_temperature;BMP_pressure;BME280_temperature;BME280_humidity;BME280_pressure;Samples;Min_cycle;Max_cycle;Signal;HPM_P1;HPM_P2
2024/04/01 00:00:20;;;;;;;43.07;20.83;;;;;;;9.06;100.00;99070.13;5006754;28;20294;-70
2024/04/01 00:02:54;;;;;;;37.77;17.80;;;;;;;9.03;100.00;99068.22;5011467;28;20206;-69
2024/04/01 00:05:24;;;;;;;44.77;18.20;;;;;;;8.99;100.00;99064.75;5011923;28;20190;-70
2024/04/01 00:07:51;;;;;;;43.73;18.80;;;;;;;8.96;100.00;99070.72;5011260;28;20212;-69
2024/04/01 00:10:20;;;;;;;42.70;22.90;;;;;;;8.92;100.00;99061.25;5005486;28;20296;-70
2024/04/01 00:12:54;;;;;;;47.60;23.03;;;;;;;8.88;100.00;99065.69;4993754;28;20244;-70
2024/04/01 00:15:29;;;;;;;53.57;22.87;;;;;;;8.84;100.00;99064.84;5002360;28;20502;-70
2024/04/01 00:18:06;;;;;;;53.23;24.70;;;;;;;8.79;100.00;99054.63;4999908;28;20280;-70
2024/04/01 00:20:37;;;;;;;53.40;22.17;;;;;;;8.75;100.00;99056.44;5004926;28;20199;-69
2024/04/01 00:23:07;;;;;;;47.53;20.93;;;;;;;8.72;100.00;99055.28;4991895;28;20199;-69
2024/04/01 00:25:43;;;;;;;46.20;20.37;;;;;;;8.70;100.00;99059.38;5003194;28;20218;-69
2024/04/01 00:28:25;;;;;;;52.13;21.93;;;;;;;8.66;100.00;99055.91;5009283;28;20195;-69
2024/04/01 00:30:58;;;;;;;48.90;20.27;;;;;;;8.62;100.00;99044.56;4991604;28;20202;-69
2024/04/01 00:33:32;;;;;;;37.87;16.40;;;;;;;8.58;100.00;99033.19;4997896;28;20296;-70
2024/04/01 00:36:13;;;;;;;50.10;16.27;;;;;;;8.55;100.00;99036.53;5011343;28;20284;-69
2024/04/01 00:38:39;;;;;;;53.03;19.33;;;;;;;8.52;100.00;99039.84;5011292;28;20223;-69
2024/04/01 00:41:11;;;;;;;44.43;16.73;;;;;;;8.49;100.00;99028.16;5007644;28;20202;-69
2024/04/01 00:43:41;;;;;;;44.50;17.00;;;;;;;8.45;100.00;99018.69;5009325;28;20189;-69
2024/04/01 00:46:09;;;;;;;38.00;16.37;;;;;;;8.44;100.00;99014.53;5009962;28;20230;-69
2024/04/01 00:48:45;;;;;;;35.43;15.27;;;;;;;8.40;100.00;99009.22;5011186;28;20213;-69
2024/04/01 00:51:21;;;;;;;35.90;15.27;;;;;;;8.35;100.00;98999.00;5006634;28;20197;-70
2024/04/01 00:53:48;;;;;;;39.37;16.73;;;;;;;8.32;100.00;98991.78;5004476;28;20266;-70
2024/04/01 00:56:19;;;;;;;47.10;15.03;;;;;;;8.28;100.00;98990.94;5008714;28;20630;-70
2024/04/01 00:58:51;;;;;;;35.03;15.20;;;;;;;8.26;100.00;98977.41;5011264;28;20251;-69
2024/04/01 01:01:19;;;;;;;38.87;15.63;;;;;;;8.24;100.00;98966.44;5010975;28;20273;-69
2024/04/01 01:03:52;;;;;;;41.63;14.87;;;;;;;8.21;100.00;98972.44;5010678;28;20402;-69
2024/04/01 01:06:29;;;;;;;35.90;15.23;;;;;;;8.18;100.00;98973.06;4991473;28;20239;-69
2024/04/01 01:09:01;;;;;;;31.20;15.03;;;;;;;8.15;100.00;98971.16;5006502;28;20231;-70
2024/04/01 01:11:35;;;;;;;33.77;15.73;;;;;;;8.14;100.00;98961.00;5008594;28;20220;-70
2024/04/01 01:14:03;;;;;;;34.53;15.13;;;;;;;8.13;100.00;98962.09;5001539;28;20205;-69
2024/04/01 01:16:36;;;;;;;33.10;14.30;;;;;;;8.10;100.00;98971.44;4986903;28;20669;-70
2024/04/01 01:19:16;;;;;;;38.90;16.40;;;;;;;8.07;100.00;98974.75;5010050;28;20222;-69
2024/04/01 01:22:12;;;;;;;35.67;13.80;;;;;;;8.05;100.00;98976.97;5001851;28;20716;-70
2024/04/01 01:24:46;;;;;;;40.17;14.10;;;;;;;8.04;100.00;98985.22;4998067;28;20190;-69
2024/04/01 01:27:23;;;;;;;44.57;14.93;;;;;;;8.03;100.00;98991.56;4991124;28;20592;-69
2024/04/01 01:29:55;;;;;;;37.67;15.07;;;;;;;8.01;100.00;98981.41;5007368;28;20623;-69
2024/04/01 01:32:26;;;;;;;34.93;14.10;;;;;;;7.98;100.00;98982.09;5003571;28;20564;-69
2024/04/01 01:35:08;;;;;;;43.93;14.87;;;;;;;7.97;100.00;98982.44;5002973;28;20220;-69
2024/04/01 01:37:38;;;;;;;43.47;16.23;;;;;;;7.95;100.00;98988.03;5001547;28;20271;-69
2024/04/01 01:40:14;;;;;;;34.83;14.30;;;;;;;7.94;100.00;98983.13;5008778;28;20698;-69
2024/04/01 01:42:50;;;;;;;45.70;15.67;;;;;;;7.92;100.00;98980.84;5003399;28;20664;-69
2024/04/01 01:45:37;;;;;;;43.17;15.70;;;;;;;7.92;100.00;98985.34;5010398;28;20408;-69
2024/04/01 01:48:10;;;;;;;41.67;14.37;;;;;;;7.89;100.00;98984.19;5002867;28;20626;-69
2024/04/01 01:50:46;;;;;;;30.17;14.00;;;;;;;7.86;100.00;98979.59;5008487;28;20622;-69
2024/04/01 01:53:18;;;;;;;39.33;14.13;;;;;;;7.84;100.00;98971.31;4996269;28;20193;-69
2024/04/01 01:55:59;;;;;;;33.37;13.33;;;;;;;7.82;100.00;98964.88;4990542;28;20221;-69
2024/04/01 01:58:34;;;;;;;40.43;14.17;;;;;;;7.80;100.00;98967.84;4990125;28;20575;-69
2024/04/01 02:01:21;;;;;;;44.87;14.53;;;;;;;7.79;100.00;98966.34;5010099;28;20675;-69
2024/04/01 02:03:54;;;;;;;37.83;14.90;;;;;;;7.77;100.00;98955.38;4996495;28;20772;-69
2024/04/01 02:06:20;;;;;;;39.97;15.43;;;;;;;7.76;100.00;98953.88;5006262;28;20726;-69
2024/04/01 02:08:55;;;;;;;36.23;14.17;;;;;;;7.74;100.00;98942.97;4990247;28;20726;-69
2024/04/01 02:11:29;;;;;;;46.90;14.23;;;;;;;7.74;100.00;98935.06;4990622;28;20691;-70
2024/04/01 02:13:57;;;;;;;34.93;15.30;;;;;;;7.74;100.00;98929.81;5006664;28;20769;-70
2024/04/01 02:16:30;;;;;;;39.50;15.07;;;;;;;7.74;100.00;98937.69;5009864;28;20794;-69
2024/04/01 02:19:08;;;;;;;35.87;14.20;;;;;;;7.73;100.00;98933.56;5009727;28;20679;-70
2024/04/01 02:21:50;;;;;;;36.40;13.70;;;;;;;7.73;100.00;98922.28;4993312;28;20692;-69
2024/04/01 02:24:22;;;;;;;43.80;12.27;;;;;;;7.73;100.00;98928.31;4991394;28;20568;-70
2024/04/01 02:27:06;;;;;;;37.90;12.63;;;;;;;7.72;100.00;98918.88;5009819;28;20437;-69
2024/04/01 02:29:43;;;;;;;36.73;10.97;;;;;;;7.73;100.00;98927.53;4975242;28;20208;-69
2024/04/01 02:32:27;;;;;;;36.83;11.93;;;;;;;7.74;100.00;98932.44;4991806;28;20215;-70
2024/04/01 02:34:57;;;;;;;30.10;11.77;;;;;;;7.75;100.00;98923.47;5005421;28;20268;-69
2024/04/01 02:37:32;;;;;;;34.47;10.93;;;;;;;7.77;100.00;98933.63;4995986;28;20221;-69
2024/04/01 02:40:21;;;;;;;30.00;11.00;;;;;;;7.78;100.00;98932.50;5001836;28;20196;-70
2024/04/01 02:42:53;;;;;;;35.57;11.97;;;;;;;7.79;100.00;98934.03;4990831;28;20201;-69
2024/04/01 02:45:22;;;;;;;39.37;12.97;;;;;;;7.81;100.00;98926.56;5007188;28;20192;-69
2024/04/01 02:47:50;;;;;;;33.77;11.53;;;;;;;7.82;100.00;98934.09;5005205;28;20196;-70
2024/04/01 02:50:38;;;;;;;46.10;12.87;;;;;;;7.87;100.00;98930.44;5009164;28;20192;-69
2024/04/01 02:53:15;;;;;;;32.87;9.07;;;;;;;7.89;100.00;98934.25;5004237;28;20189;-69
2024/04/01 02:55:51;;;;;;;37.33;9.47;;;;;;;7.93;100.00;98932.41;4991706;28;20220;-70
2024/04/01 02:58:22;;;;;;;29.50;9.77;;;;;;;7.94;100.00;98933.19;4991473;28;20207;-69
2024/04/01 03:01:07;;;;;;;31.67;10.03;;;;;;;7.97;100.00;98924.63;4990953;28;20204;-69
2024/04/01 03:03:40;;;;;;;35.00;10.33;;;;;;;8.00;100.00;98923.91;5002411;28;20712;-69
2024/04/01 03:06:10;;;;;;;33.00;10.73;;;;;;;8.01;100.00;98934.09;5008946;28;20223;-70
2024/04/01 03:08:39;;;;;;;37.03;10.57;;;;;;;8.03;100.00;98931.13;5004274;28;20201;-69
2024/04/01 03:11:14;;;;;;;32.43;10.27;;;;;;;8.05;100.00;98934.16;5009454;28;20197;-69
2024/04/01 03:13:49;;;;;;;35.57;9.07;;;;;;;8.04;100.00;98933.41;4990007;28;20201;-70
2024/04/01 03:19:21;;;;;;;36.10;9.10;;;;;;;8.10;100.00;98942.53;5003661;28;20202;-70
2024/04/01 03:21:57;;;;;;;34.20;8.60;;;;;;;8.16;100.00;98945.63;4998728;28;20193;-70
2024/04/01 03:24:30;;;;;;;41.80;7.77;;;;;;;8.24;100.00;98934.16;5005510;28;20689;-70
2024/04/01 03:26:57;;;;;;;36.33;8.60;;;;;;;8.30;100.00;98936.16;4996622;28;20424;-69
2024/04/01 03:29:32;;;;;;;37.63;8.77;;;;;;;8.38;100.00;98931.78;5003377;28;20207;-70
2024/04/01 03:32:00;;;;;;;39.97;8.63;;;;;;;8.45;100.00;98924.75;4999589;28;20440;-69
2024/04/01 03:34:30;;;;;;;31.77;8.10;;;;;;;8.53;100.00;98923.00;5006116;28;20218;-69
2024/04/01 03:37:08;;;;;;;51.37;8.23;;;;;;;8.63;100.00;98917.91;5006386;28;20573;-70
2024/04/01 03:39:37;;;;;;;37.87;7.93;;;;;;;8.70;100.00;98910.13;5011554;28;20209;-69
2024/04/01 03:42:07;;;;;;;37.03;8.00;;;;;;;8.79;100.00;98909.88;4993354;28;20202;-69
2024/04/01 03:44:39;;;;;;;36.37;8.37;;;;;;;8.85;100.00;98908.47;5000784;28;20206;-70
2024/04/01 03:47:16;;;;;;;39.10;7.47;;;;;;;8.89;100.00;98906.63;5010955;28;20378;-70
2024/04/01 03:49:43;;;;;;;42.40;7.87;;;;;;;8.92;100.00;98908.56;5009633;28;20190;-70
2024/04/01 03:52:08;;;;;;;40.13;7.37;;;;;;;8.94;100.00;98906.34;5001904;28;20209;-70
2024/04/01 03:54:35;;;;;;;29.23;8.87;;;;;;;8.94;100.00;98896.59;5011779;28;20218;-70
2024/04/01 03:57:01;;;;;;;39.20;8.97;;;;;;;8.96;100.00;98904.88;5009099;28;20220;-70
2024/04/01 03:59:27;;;;;;;28.07;7.23;;;;;;;9.04;100.00;98895.19;5010812;28;20197;-70
2024/04/01 04:01:54;;;;;;;38.60;10.17;;;;;;;9.09;100.00;98889.63;5015152;28;20210;-70
2024/04/01 04:04:20;;;;;;;33.77;7.43;;;;;;;9.12;100.00;98879.13;5010210;28;20204;-70
2024/04/01 04:06:48;;;;;;;34.00;7.23;;;;;;;9.19;100.00;98868.72;5000391;28;20716;-70
2024/04/01 04:09:15;;;;;;;36.77;7.10;;;;;;;9.24;100.00;98865.00;5005688;28;20210;-70
2024/04/01 04:11:42;;;;;;;44.10;8.27;;;;;;;9.30;100.00;98866.97;5004129;28;20211;-70
2024/04/01 04:14:08;;;;;;;39.07;6.20;;;;;;;9.37;100.00;98866.31;5007497;28;20219;-70
2024/04/01 04:16:34;;;;;;;42.33;6.43;;;;;;;9.43;100.00;98856.97;5010389;28;20740;-70
2024/04/01 04:19:01;;;;;;;44.40;8.47;;;;;;;9.52;100.00;98850.28;5007508;28;20204;-70
2024/04/01 04:21:27;;;;;;;44.17;8.13;;;;;;;9.58;100.00;98853.38;5004531;28;20201;-70
2024/04/01 04:23:55;;;;;;;27.90;7.37;;;;;;;9.61;100.00;98848.16;5008292;28;20689;-70
2024/04/01 04:26:21;;;;;;;34.57;7.10;;;;;;;9.66;100.00;98844.41;5009358;28;20246;-70
2024/04/01 04:28:46;;;;;;;31.60;6.23;;;;;;;9.69;100.00;98841.81;5006385;28;20209;-70
2024/04/01 04:31:15;;;;;;;32.70;6.70;;;;;;;9.74;100.00;98844.13;5008772;28;20273;-70
2024/04/01 04:33:43;;;;;;;34.90;7.07;;;;;;;9.79;100.00;98833.25;5007411;28;20750;-71
2024/04/01 04:36:23;;;;;;;38.73;7.97;;;;;;;9.83;100.00;98841.97;4985116;28;20233;-70
2024/04/01 04:38:56;;;;;;;37.77;7.93;;;;;;;9.91;100.00;98845.44;4994985;28;20193;-70
2024/04/01 04:41:25;;;;;;;44.53;7.37;;;;;;;9.97;100.00;98846.63;5009689;28;20203;-70
2024/04/01 04:44:01;;;;;;;37.07;6.77;;;;;;;10.05;100.00;98845.59;5007715;28;20196;-70
2024/04/01 04:46:40;;;;;;;39.30;6.83;;;;;;;10.15;100.00;98858.13;5006756;28;20278;-70
2024/04/01 04:49:30;;;;;;;31.60;7.13;;;;;;;10.23;100.00;98854.41;5001938;28;20235;-70
2024/04/01 04:52:03;;;;;;;35.33;6.13;;;;;;;10.33;100.00;98848.47;5007296;28;20208;-70
2024/04/01 04:54:32;;;;;;;31.10;6.17;;;;;;;10.39;100.00;98854.94;5009045;28;20208;-70
2024/04/01 04:57:11;;;;;;;37.20;6.60;;;;;;;10.47;100.00;98852.00;5008062;28;20256;-70
2024/04/01 04:59:49;;;;;;;31.97;6.37;;;;;;;10.55;100.00;98847.50;5005933;28;20197;-70
2024/04/01 05:02:29;;;;;;;28.60;6.60;;;;;;;10.63;100.00;98835.88;5006785;28;20226;-70
2024/04/01 05:05:17;;;;;;;34.87;6.90;;;;;;;10.67;100.00;98821.56;5006524;28;20698;-70
2024/04/01 05:07:56;;;;;;;31.50;6.30;;;;;;;10.76;100.00;98826.56;5010176;28;20200;-70
2024/04/01 05:10:27;;;;;;;35.63;7.87;;;;;;;10.83;100.00;98829.22;5006535;28;20217;-70
2024/04/01 05:13:21;;;;;;;32.53;7.00;;;;;;;10.88;100.00;98826.97;5010341;28;20222;-70
2024/04/01 05:15:49;;;;;;;29.60;6.17;;;;;;;10.94;100.00;98832.69;4998542;28;20246;-70
2024/04/01 05:21:13;;;;;;;31.50;6.27;;;;;;;11.10;100.00;98828.63;5007718;28;20185;-70
2024/04/01 05:23:48;;;;;;;26.60;6.20;;;;;;;11.17;100.00;98827.88;5010073;28;20584;-70
2024/04/01 05:26:23;;;;;;;33.20;6.83;;;;;;;11.24;100.00;98807.53;5010863;28;20217;-70
2024/04/01 05:28:55;;;;;;;28.00;7.07;;;;;;;11.31;100.00;98802.28;5008141;28;20205;-70
2024/04/01 05:31:28;;;;;;;27.33;5.97;;;;;;;11.40;100.00;98804.59;5005378;28;20276;-70
2024/04/01 05:34:12;;;;;;;40.87;8.13;;;;;;;11.47;100.00;98805.34;5010241;28;20252;-70
2024/04/01 05:36:39;;;;;;;36.77;6.77;;;;;;;11.52;100.00;98820.84;5008035;28;20212;-70
2024/04/01 05:39:35;;;;;;;41.97;7.57;;;;;;;11.56;100.00;98818.22;5001760;28;20203;-70
2024/04/01 05:42:11;;;;;;;34.00;6.37;;;;;;;11.59;100.00;98806.94;5003199;28;20289;-70
2024/04/01 05:44:44;;;;;;;36.97;7.33;;;;;;;11.64;100.00;98814.50;5007752;28;20592;-70
2024/04/01 05:47:16;;;;;;;46.70;10.07;;;;;;;11.65;100.00;98818.66;5007190;28;20316;-70
2024/04/01 05:50:06;;;;;;;36.43;8.57;;;;;;;11.69;100.00;98808.84;5005246;28;20200;-70
2024/04/01 05:52:43;;;;;;;40.10;7.37;;;;;;;11.74;100.00;98813.78;5004640;28;20288;-70
2024/04/01 05:55:18;;;;;;;42.07;7.53;;;;;;;11.76;100.00;98824.72;5001187;28;20218;-70
2024/04/01 05:57:49;;;;;;;26.07;6.20;;;;;;;11.79;100.00;98831.88;5005685;28;20212;-70
2024/04/01 06:00:28;;;;;;;32.80;7.40;;;;;;;11.82;100.00;98839.09;5004501;28;20205;-70
2024/04/01 06:03:05;;;;;;;37.60;7.00;;;;;;;11.86;100.00;98840.59;5008391;28;20212;-70
2024/04/01 06:05:43;;;;;;;32.10;7.50;;;;;;;11.88;100.00;98840.22;5006534;28;20320;-70
2024/04/01 06:08:22;;;;;;;38.70;7.03;;;;;;;11.90;100.00;98853.84;5006662;28;20226;-70
2024/04/01 06:10:51;;;;;;;36.93;7.03;;;;;;;11.92;100.00;98865.56;5006841;28;20218;-70
2024/04/01 06:13:18;;;;;;;35.63;7.07;;;;;;;11.95;100.00;98874.66;5006318;28;20317;-69
2024/04/01 06:15:44;;;;;;;28.73;6.07;;;;;;;11.94;100.00;98887.09;5009262;28;20235;-70
2024/04/01 06:18:10;;;;;;;41.20;7.20;;;;;;;11.95;100.00;98896.53;5010131;28;20200;-70
2024/04/01 06:20:37;;;;;;;32.57;7.13;;;;;;;11.96;100.00;98890.13;5005308;28;20209;-70
2024/04/01 06:23:03;;;;;;;38.23;7.47;;;;;;;11.97;100.00;98888.25;5009133;28;20199;-70
2024/04/01 06:25:29;;;;;;;33.87;7.80;;;;;;;11.97;100.00;98880.31;5004085;28;20218;-70
2024/04/01 06:27:56;;;;;;;31.03;7.13;;;;;;;11.97;100.00;98870.50;5008235;28;20686;-70
2024/04/01 06:30:23;;;;;;;30.23;6.73;;;;;;;11.96;100.00;98868.94;5008528;28;20694;-70
2024/04/01 06:32:48;;;;;;;34.73;6.63;;;;;;;11.96;100.00;98853.09;5007381;28;20679;-70
2024/04/01 06:35:17;;;;;;;29.53;6.67;;;;;;;11.96;100.00;98845.16;5007624;28;20255;-70
2024/04/01 06:37:43;;;;;;;25.30;6.77;;;;;;;11.95;100.00;98848.94;4998815;28;20663;-70
2024/04/01 06:40:10;;;;;;;31.53;7.27;;;;;;;11.96;100.00;98823.25;5005974;28;20204;-70
2024/04/01 06:42:35;;;;;;;34.93;6.23;;;;;;;11.97;100.00;98830.03;5006758;28;20269;-70
2024/04/01 06:45:03;;;;;;;34.80;6.90;;;;;;;11.96;100.00;98839.13;5007418;28;20187;-70
2024/04/01 06:47:29;;;;;;;27.40;7.27;;;;;;;11.99;100.00;98836.47;5005377;28;20223;-70
2024/04/01 06:49:55;;;;;;;27.17;6.23;;;;;;;12.01;100.00;98825.53;5007080;28;20211;-70
2024/04/01 06:52:20;;;;;;;31.73;7.57;;;;;;;12.06;100.00;98830.44;5007273;28;20210;-70
2024/04/01 06:54:47;;;;;;;36.63;6.77;;;;;;;12.07;100.00;98840.63;5008570;28;20695;-70
2024/04/01 06:57:12;;;;;;;24.93;6.97;;;;;;;12.12;100.00;98836.88;5003709;28;20224;-70
2024/04/01 06:59:39;;;;;;;40.50;6.83;;;;;;;12.17;100.00;98839.13;5003614;28;20202;-69
2024/04/01 07:02:05;;;;;;;34.60;7.93;;;;;;;12.23;100.00;98837.63;5003826;28;20701;-70
2024/04/01 07:04:34;;;;;;;31.40;6.30;;;;;;;12.29;100.00;98841.41;5008939;28;20200;-70
2024/04/01 07:06:59;;;;;;;32.00;6.70;;;;;;;12.34;100.00;98836.50;5008122;28;20595;-70
2024/04/01 07:09:26;;;;;;;25.13;6.30;;;;;;;12.40;100.00;98826.28;5005821;28;20212;-70
2024/04/01 07:11:51;;;;;;;28.37;5.83;;;;;;;12.46;100.00;98825.53;5006027;28;20564;-70
2024/04/01 07:14:18;;;;;;;30.53;6.60;;;;;;;12.51;100.00;98822.50;4996513;28;20200;-70
2024/04/01 07:16:46;;;;;;;35.37;6.63;;;;;;;12.57;100.00;98818.31;5010433;28;20764;-70
2024/04/01 07:19:14;;;;;;;34.30;6.40;;;;;;;12.63;100.00;98813.41;5009829;28;20226;-70
2024/04/01 07:21:39;;;;;;;38.33;6.07;;;;;;;12.68;100.00;98811.13;5005817;28;20216;-70
2024/04/01 07:24:06;;;;;;;27.40;5.83;;;;;;;12.74;100.00;98811.50;5012774;28;20271;-70
2024/04/01 07:26:31;;;;;;;27.17;5.93;;;;;;;12.79;100.00;98806.53;5004109;28;20291;-70
2024/04/01 07:28:58;;;;;;;23.77;5.33;;;;;;;12.87;100.00;98808.06;5013323;28;20663;-70
2024/04/01 07:31:24;;;;;;;25.47;6.07;;;;;;;12.93;100.00;98817.13;5003300;28;20206;-70
2024/04/01 07:33:50;;;;;;;27.93;5.00;;;;;;;13.00;100.00;98803.13;5005840;28;20196;-70
2024/04/01 07:36:17;;;;;;;35.00;5.70;;;;;;;13.07;100.00;98792.50;4991395;28;20571;-70
2024/04/01 07:38:43;;;;;;;29.00;5.83;;;;;;;13.14;100.00;98771.28;5009662;28;20201;-70
2024/04/01 07:41:09;;;;;;;31.07;6.07;;;;;;;13.20;100.00;98769.75;4998207;28;20667;-70
2024/04/01 07:43:35;;;;;;;25.67;6.10;;;;;;;13.26;100.00;98753.03;5013901;28;20206;-70
2024/04/01 07:46:01;;;;;;;24.57;6.10;;;;;;;13.33;100.00;98742.41;5014612;28;20239;-70
2024/04/01 07:48:27;;;;;;;30.70;4.93;;;;;;;13.41;100.00;98751.06;5010386;28;20197;-70
2024/04/01 07:50:53;;;;;;;19.23;5.13;;;;;;;13.47;100.00;98763.53;5004025;28;20197;-70
2024/04/01 07:53:22;;;;;;;31.40;5.47;;;;;;;13.53;100.00;98756.69;5008703;28;20205;-70
2024/04/01 07:55:48;;;;;;;25.20;4.87;;;;;;;13.61;100.00;98747.53;5009015;28;20264;-70
2024/04/01 07:58:14;;;;;;;22.40;5.07;;;;;;;13.69;100.00;98735.72;5006283;28;20221;-70
2024/04/01 08:00:40;;;;;;;28.37;5.27;;;;;;;13.78;100.00;98725.44;5007050;28;20200;-70
2024/04/01 08:03:06;;;;;;;25.93;4.80;;;;;;;13.87;100.00;98722.34;5007791;28;20227;-70
2024/04/01 08:05:31;;;;;;;21.10;4.50;;;;;;;13.97;100.00;98726.81;5006190;28;20225;-70
2024/04/01 08:07:58;;;;;;;21.40;5.57;;;;;;;14.08;100.00;98722.16;5009147;28;20573;-70
2024/04/01 08:10:25;;;;;;;20.43;4.60;;;;;;;14.19;100.00;98712.97;5008450;28;20453;-70
2024/04/01 08:12:52;;;;;;;20.73;5.87;;;;;;;14.31;100.00;98712.50;5011671;28;20283;-70
2024/04/01 08:15:17;;;;;;;22.27;4.63;;;;;;;14.43;100.00;98714.63;5008118;28;20219;-70
2024/04/01 08:17:44;;;;;;;22.17;4.47;;;;;;;14.54;100.00;98725.91;5006852;28;21327;-70
2024/04/01 08:20:09;;;;;;;22.13;4.03;;;;;;;14.65;100.00;98733.75;5005259;28;20299;-70
2024/04/01 08:22:36;;;;;;;24.30;4.33;;;;;;;14.77;100.00;98731.34;5007865;28;20295;-70
2024/04/01 08:25:01;;;;;;;20.87;4.57;;;;;;;14.89;100.00;98740.69;5008842;28;20200;-70
2024/04/01 08:27:29;;;;;;;19.90;3.63;;;;;;;15.01;100.00;98730.28;5005768;28;20216;-70
2024/04/01 08:29:54;;;;;;;22.33;4.53;;;;;;;15.10;100.00;98727.91;5009734;28;20214;-70
2024/04/01 08:32:21;;;;;;;16.87;3.47;;;;;;;15.23;100.00;98733.44;5008219;28;20201;-70
2024/04/01 08:34:46;;;;;;;23.10;3.70;;;;;;;15.33;100.00;98709.41;5005387;28;20206;-70
2024/04/01 08:37:12;;;;;;;15.93;4.23;;;;;;;15.43;100.00;98694.44;5004478;28;20581;-70
2024/04/01 08:39:38;;;;;;;18.70;3.53;;;;;;;15.53;100.00;98699.56;5004044;28;20201;-70
2024/04/01 08:42:05;;;;;;;16.33;4.07;;;;;;;15.66;100.00;98702.44;5008181;28;20215;-70
2024/04/01 08:44:32;;;;;;;28.83;4.47;;;;;;;15.76;100.00;98701.50;5006970;28;20219;-70
2024/04/01 08:47:01;;;;;;;21.83;4.00;;;;;;;15.87;100.00;98696.78;5007631;28;20227;-70
2024/04/01 08:49:38;;;;;;;24.97;4.10;;;;;;;15.97;97.99;98699.28;5005704;28;20208;-70
2024/04/01 08:52:05;;;;;;;17.03;3.97;;;;;;;16.08;100.00;98691.09;5006592;28;20598;-70
2024/04/01 08:54:31;;;;;;;20.17;3.43;;;;;;;16.17;99.92;98692.09;5003151;28;20255;-70
2024/04/01 08:56:57;;;;;;;14.57;3.20;;;;;;;16.26;97.19;98694.94;5006191;28;20687;-70
2024/04/01 08:59:24;;;;;;;20.63;4.00;;;;;;;16.37;96.39;98694.75;5008693;28;20222;-70
2024/04/01 09:01:51;;;;;;;16.67;4.27;;;;;;;16.47;98.60;98697.28;5006284;28;20324;-70
2024/04/01 09:04:17;;;;;;;22.17;3.93;;;;;;;16.59;98.74;98698.56;5005404;28;20632;-70
2024/04/01 09:06:43;;;;;;;16.47;3.33;;;;;;;16.68;94.63;98694.19;5007145;28;20213;-70
2024/04/01 09:09:09;;;;;;;15.50;3.13;;;;;;;16.78;96.21;98690.56;4988181;28;20235;-71
2024/04/01 09:11:36;;;;;;;13.90;3.10;;;;;;;16.88;95.41;98699.50;5005277;28;20232;-70
2024/04/01 09:14:01;;;;;;;12.00;3.40;;;;;;;16.98;85.92;98685.22;5005905;28;20207;-70
2024/04/01 09:16:28;;;;;;;12.87;2.80;;;;;;;17.07;84.11;98677.41;5003101;28;20212;-70
2024/04/01 09:19:01;;;;;;;18.73;3.47;;;;;;;17.13;85.57;98683.75;5002689;28;20224;-71
2024/04/01 09:21:27;;;;;;;9.70;2.57;;;;;;;17.22;85.08;98682.00;5007575;28;20200;-70
2024/04/01 09:23:53;;;;;;;12.67;3.53;;;;;;;17.29;86.85;98671.16;5005991;28;20318;-71
2024/04/01 09:26:19;;;;;;;13.40;2.63;;;;;;;17.40;80.54;98661.06;5005382;28;20723;-71
2024/04/01 09:28:45;;;;;;;14.93;2.50;;;;;;;17.51;84.49;98652.78;5007044;28;20205;-70
2024/04/01 09:31:11;;;;;;;13.40;3.47;;;;;;;17.61;80.32;98657.88;5004893;28;20197;-70
2024/04/01 09:33:37;;;;;;;11.07;2.97;;;;;;;17.71;80.66;98650.78;5007442;28;20211;-70
2024/04/01 09:36:05;;;;;;;12.00;2.27;;;;;;;17.83;69.33;98634.06;5005893;28;20232;-71
2024/04/01 09:38:33;;;;;;;11.53;2.37;;;;;;;17.93;69.16;98622.38;5004340;28;20587;-71
2024/04/01 09:41:00;;;;;;;13.13;3.10;;;;;;;18.02;70.87;98625.19;5005234;28;20192;-71
2024/04/01 09:43:25;;;;;;;11.23;2.40;;;;;;;18.13;65.20;98602.38;5001970;28;20205;-71
2024/04/01 09:45:52;;;;;;;11.23;2.07;;;;;;;18.25;66.40;98596.31;5005364;28;20826;-70
2024/04/01 09:48:21;;;;;;;7.37;2.30;;;;;;;18.34;64.98;98580.44;5007577;28;20209;-70
2024/04/01 09:50:49;;;;;;;7.60;2.40;;;;;;;18.45;65.46;98564.09;5001380;28;20214;-71
2024/04/01 09:53:16;;;;;;;14.57;2.50;;;;;;;18.59;65.77;98567.13;5003367;28;20205;-71
2024/04/01 09:55:59;;;;;;;9.23;2.17;;;;;;;18.73;59.68;98561.34;5002290;28;20680;-71
2024/04/01 09:58:42;;;;;;;9.10;2.30;;;;;;;18.87;63.10;98557.47;5003025;28;20204;-71
2024/04/01 10:01:23;;;;;;;11.03;2.17;;;;;;;19.01;57.55;98551.72;5003174;28;20754;-71
2024/04/01 10:04:24;;;;;;;14.40;2.27;;;;;;;19.13;59.76;98550.94;5005812;28;20254;-71
2024/04/01 10:07:29;;;;;;;8.37;1.87;;;;;;;19.24;58.07;98568.19;5006553;28;20578;-71
2024/04/01 10:10:35;;;;;;;10.53;2.30;;;;;;;19.35;57.35;98595.34;5004366;28;20702;-71
2024/04/01 10:13:38;;;;;;;10.53;2.43;;;;;;;19.49;55.75;98618.25;5004014;28;20200;-71
2024/04/01 10:16:16;;;;;;;13.43;2.20;;;;;;;19.59;56.08;98628.63;5001852;28;20236;-71
2024/04/01 10:19:07;;;;;;;13.37;1.83;;;;;;;19.73;57.14;98624.72;5000403;28;20188;-71
2024/04/01 10:21:54;;;;;;;10.60;2.47;;;;;;;19.81;57.01;98621.38;5002693;28;20196;-71
2024/04/01 10:24:46;;;;;;;9.23;2.10;;;;;;;19.90;53.73;98608.06;5002939;28;20204;-71
2024/04/01 10:27:37;;;;;;;10.57;2.17;;;;;;;20.00;53.48;98606.19;4985854;28;20730;-71
2024/04/01 10:30:33;;;;;;;5.70;2.07;;;;;;;20.07;52.56;98625.50;4960120;28;20221;-71
2024/04/01 10:33:31;;;;;;;9.80;2.13;;;;;;;20.16;54.72;98617.53;5007447;28;20313;-71
2024/04/01 10:36:07;;;;;;;13.60;2.57;;;;;;;20.23;52.64;98627.97;5001301;28;20236;-71
2024/04/01 10:39:27;;;;;;;8.10;2.00;;;;;;;20.29;53.80;98620.16;5002489;28;20192;-71
2024/04/01 10:42:40;;;;;;;11.73;2.47;;;;;;;20.34;51.50;98616.91;5000566;28;20284;-71
2024/04/01 10:45:36;;;;;;;11.97;2.20;;;;;;;20.41;53.21;98622.00;5000620;28;20214;-71
2024/04/01 10:48:15;;;;;;;11.10;2.23;;;;;;;20.49;53.21;98626.66;5004603;28;20286;-71
2024/04/01 10:51:17;;;;;;;15.67;2.30;;;;;;;20.54;50.32;98628.06;4995992;28;20199;-71
2024/04/01 10:53:57;;;;;;;15.93;2.50;;;;;;;20.59;52.15;98619.44;5001577;28;20208;-71
2024/04/01 10:56:57;;;;;;;8.75;1.88;;;;;;;20.60;50.09;98616.28;5003473;28;20405;-71
2024/04/01 11:00:08;;;;;;;10.07;1.80;;;;;;;20.64;52.09;98614.25;5006059;28;20201;-71
2024/04/01 11:03:05;;;;;;;11.27;2.60;;;;;;;20.65;50.74;98623.03;4999864;28;20597;-71
2024/04/01 11:06:02;;;;;;;10.73;2.17;;;;;;;20.67;52.48;98620.66;5001860;28;20298;-71
2024/04/01 11:08:36;;;;;;;12.63;2.67;;;;;;;20.67;49.84;98632.16;5001535;28;20205;-71
2024/04/01 11:11:19;;;;;;;10.27;2.25;;;;;;;20.69;51.29;98637.81;5001312;28;20291;-71
2024/04/01 11:13:47;;;;;;;9.67;2.03;;;;;;;20.70;49.49;98628.56;5004228;28;20254;-71
2024/04/01 11:16:17;;;;;;;10.13;2.45;;;;;;;20.74;51.02;98626.50;5000930;28;20304;-71
2024/04/01 11:18:53;;;;;;;12.88;2.42;;;;;;;20.71;52.50;98624.72;5000514;28;20208;-71
2024/04/01 11:21:32;;;;;;;11.15;2.38;;;;;;;20.69;50.90;98632.44;5002105;28;20299;-71
2024/04/01 11:24:10;;;;;;;11.00;2.17;;;;;;;20.67;53.26;98628.72;5002644;28;20236;-71
2024/04/01 11:26:58;;;;;;;17.83;2.38;;;;;;;20.61;51.25;98636.59;5000466;28;20230;-71
2024/04/01 11:29:51;;;;;;;14.90;2.30;;;;;;;20.59;51.13;98657.72;5006626;28;20224;-71
2024/04/01 11:32:22;;;;;;;18.13;2.97;;;;;;;20.58;51.60;98650.09;4993248;28;20201;-71
2024/04/01 11:34:54;;;;;;;9.85;2.80;;;;;;;20.56;51.19;98639.06;4984870;28;20201;-71
2024/04/01 11:37:28;;;;;;;17.47;2.53;;;;;;;20.53;50.79;98635.34;5004622;28;20252;-71
2024/04/01 11:39:58;;;;;;;13.57;2.73;;;;;;;20.52;52.32;98631.16;5001198;28;20208;-71
2024/04/01 11:42:29;;;;;;;19.53;2.70;;;;;;;20.50;53.45;98635.47;5006536;28;20688;-71
2024/04/01 11:44:56;;;;;;;13.67;2.07;;;;;;;20.49;51.89;98647.38;5003651;28;20208;-71
2024/04/01 11:47:26;;;;;;;13.13;2.73;;;;;;;20.45;52.56;98644.06;5003655;28;20282;-71
2024/04/01 11:49:52;;;;;;;12.80;2.93;;;;;;;20.47;52.45;98649.75;4993615;28;20761;-71
2024/04/01 11:52:20;;;;;;;16.65;3.30;;;;;;;20.42;52.20;98644.94;5003461;28;20247;-71
2024/04/01 11:54:46;;;;;;;14.75;2.40;;;;;;;20.40;53.12;98648.06;5004151;28;20668;-71